createdAt,value
2019-04-16T00:02:00.060Z,46.90
2019-04-16T00:04:46.463Z,48.37
2019-04-16T00:07:28.950Z,50.00
2019-04-16T00:10:17.647Z,48.40
2019-04-16T00:13:04.027Z,49.30
2019-04-16T00:15:32.510Z,48.78
2019-04-16T00:18:00.981Z,47.37
2019-04-16T00:20:29.813Z,47.48
2019-04-16T00:23:02.688Z,48.21
2019-04-16T00:25:31.254Z,47.89
2019-04-16T00:28:00.776Z,47.42
2019-04-16T00:30:29.700Z,47.61
2019-04-16T00:32:58.189Z,47.63
2019-04-16T00:35:26.622Z,47.50
2019-04-16T00:37:55.227Z,48.20
2019-04-16T00:40:26.386Z,48.17
2019-04-16T00:42:53.850Z,47.98
2019-04-16T00:45:22.289Z,47.77
2019-04-16T00:47:51.389Z,48.31
2019-04-16T00:50:20.677Z,48.33
2019-04-16T00:52:49.175Z,48.80
2019-04-16T00:55:17.623Z,50.40
2019-04-16T00:57:48.613Z,48.84
2019-04-16T01:00:16.561Z,49.05
2019-04-16T01:02:46.935Z,49.09
2019-04-16T01:05:15.335Z,49.56
2019-04-16T01:07:43.764Z,48.56
2019-04-16T01:10:12.329Z,49.01
2019-04-16T01:12:40.782Z,49.03
2019-04-16T01:15:09.565Z,49.56
2019-04-16T01:17:38.001Z,49.48
2019-04-16T01:20:11.653Z,49.24
2019-04-16T01:22:37.882Z,49.94
2019-04-16T01:25:07.495Z,49.33
2019-04-16T01:27:37.838Z,49.77
2019-04-16T01:30:08.857Z,49.56
2019-04-16T01:32:42.424Z,49.35
2019-04-16T01:35:27.025Z,49.35
2019-04-16T01:38:03.188Z,49.58
2019-04-16T01:40:33.297Z,51.25
2019-04-16T01:43:01.998Z,51.75
2019-04-16T01:45:30.590Z,50.34
2019-04-16T01:47:59.129Z,49.86
2019-04-16T01:50:27.571Z,49.82
2019-04-16T01:52:56.024Z,49.72
2019-04-16T01:55:25.713Z,49.61
2019-04-16T01:57:54.891Z,49.92
2019-04-16T02:00:23.399Z,50.34
2019-04-16T02:02:51.891Z,51.32
2019-04-16T02:05:23.084Z,50.75
2019-04-16T02:07:50.651Z,50.34
2019-04-16T02:10:19.146Z,50.21
2019-04-16T02:12:47.621Z,50.53
2019-04-16T02:15:16.213Z,50.50
2019-04-16T02:17:44.641Z,50.62
2019-04-16T02:20:13.222Z,50.78
2019-04-16T02:22:42.340Z,50.56
2019-04-16T02:25:11.902Z,50.43
2019-04-16T02:27:40.338Z,50.82
2019-04-16T02:30:08.862Z,51.07
2019-04-16T02:32:37.295Z,50.25
2019-04-16T02:35:07.181Z,50.56
2019-04-16T02:37:37.287Z,50.41
2019-04-16T02:40:06.912Z,50.78
2019-04-16T02:42:35.425Z,50.58
2019-04-16T02:45:03.980Z,50.82
2019-04-16T02:47:32.463Z,50.83
2019-04-16T02:50:01.848Z,51.34
2019-04-16T02:52:37.979Z,51.24
2019-04-16T02:55:14.323Z,51.14
2019-04-16T02:58:02.585Z,51.40
2019-04-16T03:00:32.790Z,50.88
2019-04-16T03:03:02.868Z,51.04
2019-04-16T03:05:32.917Z,51.29
2019-04-16T03:08:04.511Z,51.14
2019-04-16T03:10:31.723Z,51.43
2019-04-16T03:13:00.215Z,50.74
2019-04-16T03:15:42.051Z,51.29
2019-04-16T03:18:14.896Z,51.13
2019-04-16T03:20:42.461Z,51.24
2019-04-16T03:23:10.920Z,51.49
2019-04-16T03:25:41.362Z,51.45
2019-04-16T03:28:10.330Z,52.15
2019-04-16T03:30:42.250Z,51.50
2019-04-16T03:33:13.442Z,51.95
2019-04-16T03:35:39.122Z,51.18
2019-04-16T03:38:07.755Z,51.30
2019-04-16T03:40:36.160Z,52.18
2019-04-16T03:43:04.861Z,51.51
2019-04-16T03:45:33.299Z,51.56
2019-04-16T03:48:01.722Z,51.04
2019-04-16T03:50:31.405Z,51.36
2019-04-16T03:53:00.357Z,51.52
2019-04-16T03:55:28.763Z,51.84
2019-04-16T03:57:57.181Z,51.77
2019-04-16T04:00:25.636Z,52.06
2019-04-16T04:02:55.179Z,51.50
2019-04-16T04:05:23.890Z,52.05
2019-04-16T04:07:55.114Z,51.81
2019-04-16T04:10:30.498Z,51.26
2019-04-16T04:12:52.716Z,51.74
2019-04-16T04:15:26.078Z,51.69
2019-04-16T04:17:51.312Z,51.38
2019-04-16T04:20:19.760Z,51.49
2019-04-16T04:22:48.276Z,51.46
2019-04-16T04:25:16.865Z,51.31
2019-04-16T04:27:46.682Z,51.54
2019-04-16T04:30:17.317Z,51.70
2019-04-16T04:32:47.503Z,51.44
2019-04-16T04:35:20.594Z,51.19
2019-04-16T04:37:46.074Z,51.85
2019-04-16T04:40:16.152Z,51.75
2019-04-16T04:42:44.665Z,51.59
2019-04-16T04:45:13.141Z,51.34
2019-04-16T04:47:41.661Z,51.20
2019-04-16T04:50:10.837Z,51.32
2019-04-16T04:52:39.273Z,51.60
2019-04-16T04:55:07.926Z,51.23
2019-04-16T04:57:36.368Z,51.15
2019-04-16T05:00:08.450Z,51.66
2019-04-16T05:02:37.335Z,51.30
2019-04-16T05:05:10.995Z,51.21
2019-04-16T05:07:39.387Z,51.17
2019-04-16T05:10:08.418Z,51.32
2019-04-16T05:12:37.021Z,51.02
2019-04-16T05:15:07.001Z,50.95
2019-04-16T05:17:38.264Z,51.21
2019-04-16T05:20:07.157Z,50.43
2019-04-16T05:22:35.561Z,50.38
2019-04-16T05:25:05.131Z,50.70
2019-04-16T05:27:33.563Z,50.20
2019-04-16T05:30:01.983Z,49.97
2019-04-16T05:32:33.990Z,50.39
2019-04-16T05:35:00.564Z,49.87
2019-04-16T05:37:28.992Z,49.61
2019-04-16T05:39:58.941Z,49.67
2019-04-16T05:42:27.596Z,49.89
2019-04-16T05:44:56.207Z,49.72
2019-04-16T05:47:24.637Z,49.34
2019-04-16T05:49:54.415Z,49.32
2019-04-16T05:52:23.245Z,49.60
2019-04-16T05:55:16.838Z,49.39
2019-04-16T05:57:43.485Z,49.65
2019-04-16T06:00:14.321Z,49.34
2019-04-16T06:02:43.823Z,49.40
2019-04-16T06:05:12.574Z,48.97
2019-04-16T06:07:41.008Z,49.01
2019-04-16T06:10:10.047Z,49.20
2019-04-16T06:12:42.807Z,49.35
2019-04-16T06:15:12.931Z,48.90
2019-04-16T06:17:48.533Z,48.73
2019-04-16T06:20:27.668Z,49.00
2019-04-16T06:23:14.353Z,48.63
2019-04-16T06:25:46.908Z,49.08
2019-04-16T06:28:16.984Z,49.05
2019-04-16T06:30:47.035Z,48.73
2019-04-16T06:33:19.743Z,48.55
2019-04-16T06:35:49.795Z,48.50
2019-04-16T06:38:25.729Z,48.46
2019-04-16T06:41:11.140Z,48.45
2019-04-16T06:43:41.243Z,48.23
2019-04-16T06:46:27.546Z,48.20
2019-04-16T06:49:14.355Z,48.40
2019-04-16T06:51:44.836Z,47.92
2019-04-16T06:54:32.835Z,48.07
2019-04-16T06:57:19.039Z,47.83
2019-04-16T06:59:52.134Z,47.44
2019-04-16T07:02:40.697Z,46.95
2019-04-16T07:05:09.385Z,47.72
2019-04-16T07:07:56.121Z,47.38
2019-04-16T07:10:28.675Z,47.31
2019-04-16T07:12:56.433Z,46.95
2019-04-16T07:15:28.253Z,47.87
2019-04-16T07:17:55.219Z,46.47
2019-04-16T07:20:23.927Z,47.85
2019-04-16T07:22:52.902Z,47.90
2019-04-16T07:25:22.415Z,47.62
2019-04-16T07:28:02.811Z,46.92
2019-04-16T07:30:40.388Z,48.19
2019-04-16T07:33:10.596Z,46.07
2019-04-16T07:35:55.927Z,46.98
2019-04-16T07:38:38.171Z,46.76
2019-04-16T07:41:24.379Z,46.50
2019-04-16T07:44:11.367Z,46.72
2019-04-16T07:46:47.915Z,45.81
2019-04-16T07:49:33.232Z,46.48
2019-04-16T07:52:19.409Z,44.51
2019-04-16T07:54:49.477Z,44.88
2019-04-16T07:57:17.922Z,43.62
2019-04-16T07:59:46.334Z,43.50
2019-04-16T08:02:17.663Z,42.97
2019-04-16T08:04:44.996Z,42.74
2019-04-16T08:07:13.450Z,42.57
2019-04-16T08:09:41.904Z,42.58
2019-04-16T08:12:22.065Z,41.91
2019-04-16T08:14:40.490Z,41.44
2019-04-16T08:17:08.941Z,41.25
2019-04-16T08:19:37.761Z,41.00
2019-04-16T08:22:06.609Z,40.14
2019-04-16T08:24:45.742Z,40.28
2019-04-16T08:27:18.370Z,38.73
2019-04-16T08:29:44.373Z,38.66
2019-04-16T08:32:16.041Z,38.30
2019-04-16T08:34:43.024Z,36.85
2019-04-16T08:37:11.448Z,36.86
2019-04-16T08:39:40.571Z,36.96
2019-04-16T08:42:09.182Z,36.70
2019-04-16T08:44:37.610Z,36.04
2019-04-16T08:47:11.569Z,36.28
2019-04-16T08:49:36.376Z,36.10
2019-04-16T08:52:09.865Z,35.70
2019-04-16T08:54:35.082Z,34.68
2019-04-16T08:57:03.536Z,33.99
2019-04-16T08:59:31.960Z,31.63
2019-04-16T09:02:01.375Z,31.08
2019-04-16T09:04:34.257Z,32.10
2019-04-16T09:07:11.483Z,30.82
2019-04-16T09:09:31.868Z,30.20
2019-04-16T09:12:08.910Z,30.19
2019-04-16T09:14:37.141Z,30.76
2019-04-16T09:17:22.491Z,30.00
2019-04-16T09:20:01.350Z,29.33
2019-04-16T09:22:28.946Z,29.44
2019-04-16T09:25:15.137Z,29.07
2019-04-16T09:27:45.232Z,28.78
2019-04-16T09:30:18.334Z,27.12
2019-04-16T09:33:00.321Z,27.34
2019-04-16T09:35:38.278Z,26.57
2019-04-16T09:38:09.323Z,24.90
2019-04-16T09:40:40.250Z,26.57
2019-04-16T09:43:16.703Z,25.71
2019-04-16T09:45:40.440Z,25.96
2019-04-16T09:48:08.881Z,25.09
2019-04-16T09:50:42.985Z,25.76
2019-04-16T09:53:07.448Z,23.74
2019-04-16T09:55:35.905Z,23.69
2019-04-16T09:58:07.026Z,23.18
2019-04-16T10:00:37.194Z,20.32
2019-04-16T10:03:19.771Z,19.58
2019-04-16T10:05:48.288Z,20.28
2019-04-16T10:08:16.741Z,19.67
2019-04-16T10:10:45.244Z,21.27
2019-04-16T10:13:13.700Z,18.75
2019-04-16T10:15:42.221Z,19.80
2019-04-16T10:18:10.739Z,17.29
2019-04-16T10:20:40.435Z,17.46
2019-04-16T10:23:10.609Z,17.99
2019-04-16T10:25:39.030Z,20.14
2019-04-16T10:28:09.112Z,20.46
2019-04-16T10:30:39.297Z,16.24
2019-04-16T10:33:07.767Z,15.64
2019-04-16T10:35:36.201Z,16.11
2019-04-16T10:38:06.279Z,17.30
2019-04-16T10:40:45.376Z,18.48
2019-04-16T10:43:15.432Z,18.32
2019-04-16T10:45:45.545Z,15.56
2019-04-16T10:48:18.030Z,16.54
2019-04-16T10:50:48.095Z,18.75
2019-04-16T10:53:18.233Z,18.34
2019-04-16T10:56:03.376Z,15.55
2019-04-16T10:58:49.632Z,14.37
2019-04-16T11:01:30.482Z,14.01
2019-04-16T11:04:15.720Z,14.06
2019-04-16T11:07:02.152Z,12.93
2019-04-16T11:09:30.726Z,15.33
2019-04-16T11:11:59.269Z,13.99
2019-04-16T11:14:27.719Z,13.94
2019-04-16T11:16:56.188Z,14.54
2019-04-16T11:19:24.656Z,12.76
2019-04-16T11:21:53.061Z,12.22
2019-04-16T11:24:21.621Z,13.36
2019-04-16T11:26:50.217Z,14.00
2019-04-16T11:29:18.613Z,14.05
2019-04-16T11:31:47.058Z,13.79
2019-04-16T11:34:15.623Z,18.12
2019-04-16T11:36:44.116Z,18.12
2019-04-16T11:39:12.696Z,21.49
2019-04-16T11:41:41.264Z,22.64
2019-04-16T11:44:15.558Z,24.86
2019-04-16T11:46:39.964Z,25.98
2019-04-16T11:49:08.357Z,26.70
2019-04-16T11:51:36.829Z,26.28
2019-04-16T11:54:05.254Z,24.90
2019-04-16T11:56:33.731Z,23.53
2019-04-16T11:59:02.129Z,22.04
2019-04-16T12:01:47.493Z,22.17
2019-04-16T12:04:20.346Z,22.61
2019-04-16T12:07:08.807Z,23.63
2019-04-16T12:09:41.861Z,21.09
2019-04-16T12:12:17.987Z,23.22
2019-04-16T12:14:50.762Z,25.00
2019-04-16T12:17:20.905Z,24.18
2019-04-16T12:19:51.001Z,25.38
2019-04-16T12:22:21.033Z,24.93
2019-04-16T12:24:56.727Z,25.62
2019-04-16T12:27:35.633Z,25.06
2019-04-16T12:30:22.998Z,22.56
2019-04-16T12:33:09.502Z,19.38
2019-04-16T12:35:56.545Z,25.66
2019-04-16T12:38:29.316Z,28.44
2019-04-16T12:41:02.565Z,30.24
2019-04-16T12:43:35.999Z,30.41
2019-04-16T12:46:23.028Z,30.25
2019-04-16T12:49:11.260Z,31.22
2019-04-16T12:51:44.086Z,29.29
2019-04-16T12:54:19.881Z,29.32
2019-04-16T12:57:06.246Z,30.53
2019-04-16T12:59:39.038Z,29.13
2019-04-16T13:02:13.750Z,31.12
2019-04-16T13:04:49.551Z,29.65
2019-04-16T13:07:22.327Z,30.92
2019-04-16T13:09:55.289Z,31.76
2019-04-16T13:12:28.067Z,31.03
2019-04-16T13:15:04.295Z,32.21
2019-04-16T13:17:51.586Z,32.44
2019-04-16T13:20:33.917Z,31.76
2019-04-16T13:23:13.296Z,31.71
2019-04-16T13:25:52.382Z,32.06
2019-04-16T13:28:24.739Z,32.71
2019-04-16T13:30:53.144Z,31.99
2019-04-16T13:33:21.592Z,32.74
2019-04-16T13:35:50.074Z,32.66
2019-04-16T13:38:20.175Z,34.22
2019-04-16T13:40:50.194Z,32.50
2019-04-16T13:43:20.482Z,32.76
2019-04-16T13:45:48.890Z,32.56
2019-04-16T13:48:21.412Z,32.79
2019-04-16T13:50:51.486Z,32.53
2019-04-16T13:53:30.760Z,33.03
2019-04-16T13:56:19.275Z,33.90
2019-04-16T13:58:56.040Z,33.10
2019-04-16T14:01:32.637Z,33.22
2019-04-16T14:04:01.045Z,32.47
2019-04-16T14:06:29.516Z,32.73
2019-04-16T14:08:57.992Z,32.98
2019-04-16T14:11:26.426Z,33.35
2019-04-16T14:13:54.872Z,33.49
2019-04-16T14:16:23.400Z,33.62
2019-04-16T14:18:51.862Z,33.42
2019-04-16T14:21:20.306Z,33.96
2019-04-16T14:23:48.755Z,33.45
2019-04-16T14:26:17.166Z,34.53
2019-04-16T14:28:52.378Z,34.44
2019-04-16T14:31:16.963Z,34.68
2019-04-16T14:33:50.539Z,34.74
2019-04-16T14:36:19.270Z,33.94
2019-04-16T14:38:49.567Z,33.82
2019-04-16T14:41:17.991Z,34.26
2019-04-16T14:43:48.089Z,34.01
2019-04-16T14:46:16.522Z,34.13
2019-04-16T14:48:46.405Z,33.61
2019-04-16T14:51:15.281Z,35.16
2019-04-16T14:54:01.899Z,34.73
2019-04-16T14:56:37.921Z,34.32
2019-04-16T14:59:11.186Z,34.23
2019-04-16T15:01:57.026Z,34.34
2019-04-16T15:04:36.031Z,33.99
2019-04-16T15:07:06.188Z,33.75
2019-04-16T15:09:51.364Z,33.89
2019-04-16T15:12:21.462Z,33.62
2019-04-16T15:15:03.411Z,34.60
2019-04-16T15:17:48.589Z,34.34
2019-04-16T15:20:24.901Z,34.94
2019-04-16T15:22:55.086Z,34.39
2019-04-16T15:25:25.319Z,34.67
2019-04-16T15:27:56.004Z,35.20
2019-04-16T15:30:28.705Z,35.18
2019-04-16T15:33:13.895Z,35.08
2019-04-16T15:35:47.750Z,34.72
2019-04-16T15:38:20.511Z,35.42
2019-04-16T15:40:50.639Z,36.26
2019-04-16T15:43:23.360Z,35.58
2019-04-16T15:46:25.532Z,35.73
2019-04-16T15:48:50.681Z,35.27
2019-04-16T15:51:24.022Z,36.03
2019-04-16T15:54:00.059Z,36.25
2019-04-16T15:56:32.990Z,36.29
2019-04-16T15:59:05.990Z,37.31
2019-04-16T16:01:48.300Z,37.32
2019-04-16T16:04:18.362Z,37.03
2019-04-16T16:06:52.162Z,37.47
2019-04-16T16:09:23.235Z,36.92
2019-04-16T16:11:59.512Z,37.34
2019-04-16T16:14:33.170Z,37.20
2019-04-16T16:16:58.113Z,37.30
2019-04-16T16:19:26.562Z,37.10
2019-04-16T16:21:54.988Z,37.03
2019-04-16T16:24:23.418Z,36.49
2019-04-16T16:26:51.835Z,36.86
2019-04-16T16:29:20.274Z,36.78
2019-04-16T16:31:48.820Z,37.03
2019-04-16T16:34:17.244Z,37.60
2019-04-16T16:36:45.691Z,37.74
2019-04-16T16:39:14.158Z,36.96
2019-04-16T16:41:46.251Z,37.51
2019-04-16T16:44:12.858Z,37.39
2019-04-16T16:46:56.531Z,37.91
2019-04-16T16:49:18.987Z,39.05
2019-04-16T16:52:05.420Z,37.97
2019-04-16T16:54:34.021Z,39.38
2019-04-16T16:57:07.758Z,38.83
2019-04-16T16:59:38.542Z,39.40
2019-04-16T17:02:23.579Z,40.82
2019-04-16T17:04:53.669Z,41.56
2019-04-16T17:07:22.136Z,41.64
2019-04-16T17:09:50.613Z,41.73
2019-04-16T17:12:19.408Z,41.80
2019-04-16T17:14:47.856Z,41.98
2019-04-16T17:17:16.342Z,42.19
2019-04-16T17:19:44.787Z,42.93
2019-04-16T17:22:14.645Z,42.71
2019-04-16T17:24:43.398Z,42.99
2019-04-16T17:27:11.849Z,42.86
2019-04-16T17:29:40.380Z,43.42
2019-04-16T17:32:08.889Z,43.18
2019-04-16T17:34:39.739Z,43.04
2019-04-16T17:37:07.526Z,43.35
2019-04-16T17:39:42.640Z,43.40
2019-04-16T17:42:31.251Z,43.07
2019-04-16T17:45:18.763Z,42.63
2019-04-16T17:48:00.788Z,43.13
2019-04-16T17:50:30.826Z,43.22
2019-04-16T17:53:06.779Z,43.33
2019-04-16T17:55:39.750Z,43.50
2019-04-16T17:58:09.872Z,43.74
2019-04-16T18:00:42.976Z,44.07
2019-04-16T18:03:21.957Z,43.80
2019-04-16T18:05:52.470Z,44.75
2019-04-16T18:08:22.761Z,45.88
2019-04-16T18:10:55.747Z,46.93
2019-04-16T18:13:42.143Z,47.12
2019-04-16T18:16:24.739Z,47.58
2019-04-16T18:18:54.883Z,46.65
2019-04-16T18:21:39.747Z,47.62
2019-04-16T18:24:15.786Z,47.60
2019-04-16T18:27:06.410Z,48.19
2019-04-16T18:29:36.494Z,46.63
2019-04-16T18:32:22.049Z,46.86
2019-04-16T18:35:08.240Z,47.80
2019-04-16T18:37:48.593Z,48.67
2019-04-16T18:40:26.621Z,48.50
2019-04-16T18:43:08.791Z,49.24
2019-04-16T18:45:55.866Z,47.70
2019-04-16T18:48:25.512Z,49.55
2019-04-16T18:50:53.976Z,48.54
2019-04-16T18:53:24.581Z,48.34
2019-04-16T18:58:22.326Z,49.41
2019-04-16T19:00:52.796Z,49.76
2019-04-16T19:03:21.318Z,49.39
2019-04-16T19:05:49.822Z,49.22
2019-04-16T19:08:18.279Z,49.06
2019-04-16T19:10:46.781Z,49.78
2019-04-16T19:13:15.212Z,50.04
2019-04-16T19:15:43.731Z,49.95
2019-04-16T19:18:19.471Z,50.42
2019-04-16T19:20:45.296Z,50.52
2019-04-16T19:23:13.819Z,50.34
2019-04-16T19:25:42.402Z,51.27
2019-04-16T19:28:10.905Z,51.51
2019-04-16T19:30:39.523Z,50.73
2019-04-16T19:33:07.993Z,51.71
2019-04-16T19:35:36.759Z,53.50
2019-04-16T19:38:06.701Z,52.54
2019-04-16T19:40:35.614Z,51.56
2019-04-16T19:43:04.361Z,53.20
2019-04-16T19:45:33.016Z,53.59
2019-04-16T19:48:02.368Z,52.87
2019-04-16T19:50:36.079Z,53.79
2019-04-16T19:53:01.296Z,54.27
2019-04-16T19:55:29.748Z,54.24
2019-04-16T19:57:58.180Z,53.42
2019-04-16T20:00:26.626Z,54.60
2019-04-16T20:02:55.118Z,53.98
2019-04-16T20:05:23.589Z,55.52
2019-04-16T20:07:52.103Z,54.60
2019-04-16T20:10:20.540Z,55.04
2019-04-16T20:12:49.071Z,54.61
2019-04-16T20:15:17.501Z,54.76
2019-04-16T20:17:45.958Z,56.50
2019-04-16T20:20:14.483Z,56.08
2019-04-16T20:22:43.028Z,55.29
2019-04-16T20:25:11.539Z,56.97
2019-04-16T20:27:40.843Z,56.41
2019-04-16T20:30:11.697Z,56.77
2019-04-16T20:32:42.264Z,56.04
2019-04-16T20:35:10.792Z,57.20
2019-04-16T20:37:39.229Z,57.65
2019-04-16T20:40:07.825Z,57.86
2019-04-16T20:42:36.277Z,57.64
2019-04-16T20:45:06.598Z,58.65
2019-04-16T20:47:38.558Z,59.90
2019-04-16T20:50:07.090Z,59.78
2019-04-16T20:52:35.563Z,60.23
2019-04-16T20:55:04.429Z,60.60
2019-04-16T20:57:32.883Z,60.75
2019-04-16T21:00:01.320Z,63.03
2019-04-16T21:02:31.413Z,62.31
2019-04-16T21:05:02.664Z,62.02
2019-04-16T21:07:31.107Z,62.78
2019-04-16T21:09:59.892Z,62.03
2019-04-16T21:12:29.784Z,64.20
2019-04-16T21:14:58.531Z,64.22
2019-04-16T21:17:27.450Z,62.45
2019-04-16T21:19:55.910Z,64.35
2019-04-16T21:22:24.913Z,64.59
2019-04-16T21:24:54.609Z,65.50
2019-04-16T21:27:24.171Z,62.49
2019-04-16T21:29:52.722Z,65.43
2019-04-16T21:32:25.504Z,65.55
2019-04-16T21:35:05.522Z,64.22
2019-04-16T21:37:49.826Z,66.98
2019-04-16T21:40:23.142Z,66.87
2019-04-16T21:42:48.489Z,64.40
2019-04-16T21:45:17.135Z,64.13
2019-04-16T21:47:45.831Z,66.38
2019-04-16T21:50:16.406Z,65.27
2019-04-16T21:52:45.503Z,68.38
2019-04-16T21:55:14.120Z,65.67
2019-04-16T21:57:42.776Z,64.60
2019-04-16T22:00:31.813Z,64.40
2019-04-16T22:03:00.375Z,63.95
2019-04-16T22:05:28.824Z,64.85
2019-04-16T22:07:58.356Z,65.42
2019-04-16T22:10:27.299Z,65.39
2019-04-16T22:12:55.911Z,70.86
2019-04-16T22:15:25.337Z,68.12
2019-04-16T22:17:54.624Z,66.31
2019-04-16T22:20:23.042Z,66.11
2019-04-16T22:22:51.566Z,68.80
2019-04-16T22:25:20.084Z,67.47
2019-04-16T22:27:48.519Z,66.43
2019-04-16T22:30:19.416Z,66.43
2019-04-16T22:32:47.307Z,68.86
2019-04-16T22:35:15.715Z,67.16
2019-04-16T22:37:44.166Z,67.00
2019-04-16T22:40:31.228Z,65.11
2019-04-16T22:43:08.551Z,66.14
2019-04-16T22:45:41.893Z,66.53
2019-04-16T22:48:10.407Z,65.37
2019-04-16T22:50:40.465Z,66.36
2019-04-16T22:53:08.871Z,66.35
2019-04-16T22:55:37.354Z,67.72
2019-04-16T22:58:05.798Z,65.50
2019-04-16T23:00:36.002Z,70.02
2019-04-16T23:03:04.785Z,69.44
2019-04-16T23:05:33.256Z,67.57
2019-04-16T23:08:01.675Z,66.43
2019-04-16T23:10:30.210Z,67.34
2019-04-16T23:13:00.411Z,67.64
2019-04-16T23:15:29.539Z,68.05
2019-04-16T23:17:59.190Z,66.46
2019-04-16T23:20:29.519Z,65.64
2019-04-16T23:22:57.927Z,65.33
2019-04-16T23:25:28.203Z,66.52
2019-04-16T23:27:57.372Z,67.26
2019-04-16T23:30:26.204Z,66.29
2019-04-16T23:32:58.992Z,67.71
2019-04-16T23:35:25.095Z,66.23
2019-04-16T23:37:58.096Z,66.36
2019-04-16T23:40:23.806Z,65.98
2019-04-16T23:42:59.837Z,67.11
2019-04-16T23:45:32.747Z,65.68
2019-04-16T23:48:03.175Z,65.58
2019-04-16T23:50:44.986Z,65.50
2019-04-16T23:53:19.323Z,65.37
2019-04-16T23:55:58.253Z,67.00
2019-04-16T23:58:30.731Z,67.11
